< Typhoon 196015 1960 Season Typhoon 196017 >
Typhoon 196016 (DELLA)
General InformationTrack Information on Google Maps || NewsDisaster Info.ResourceGoogle EarthGE AnimationAtom FeedGeoJSON
Detalied Best Track (Time Zone = UTC)
Year Month Day Hour Lat. Long. Pressure (hPa) Wind (kt) Class Image Chart
1960 8 17 00 13.0 153.8 1008 0 2 -- Chart
1960 8 17 06 13.3 154.1 1004 0 9 -- Chart
1960 8 17 12 13.4 154.2 1006 0 9 -- Chart
1960 8 17 18 13.5 154.3 1006 0 9 -- Chart
1960 8 18 00 13.7 154.3 1004 0 9 -- Chart
1960 8 18 06 13.7 153.7 1002 0 9 -- Chart
1960 8 18 12 14.1 152.3 1002 0 9 -- Chart
1960 8 18 18 14.4 150.4 1000 0 9 -- Chart
1960 8 19 00 14.8 149.2 1000 0 9 -- Chart
1960 8 19 06 15.2 148.2 998 0 9 -- Chart
1960 8 19 12 15.8 147.2 998 0 9 -- Chart
1960 8 19 18 16.3 146.2 998 0 9 -- Chart
1960 8 20 00 16.9 145.3 998 0 9 -- Chart
1960 8 20 06 17.5 144.8 998 0 9 -- Chart
1960 8 20 12 18.2 144.0 998 0 9 -- Chart
1960 8 20 18 19.0 143.4 998 0 9 -- Chart
1960 8 21 00 19.5 142.8 998 0 9 -- Chart
1960 8 21 06 19.7 141.9 998 0 9 -- Chart
1960 8 21 12 19.9 140.9 998 0 9 -- Chart
1960 8 21 18 20.2 139.9 998 0 9 -- Chart
1960 8 22 00 20.5 139.0 998 0 9 -- Chart
1960 8 22 06 21.1 138.2 994 0 9 -- Chart
1960 8 22 12 21.4 137.7 990 0 9 -- Chart
1960 8 22 18 21.5 137.3 985 0 9 -- Chart
1960 8 23 00 21.7 137.0 985 0 9 -- Chart
1960 8 23 06 21.8 136.5 985 0 9 -- Chart
1960 8 23 12 21.7 136.2 980 0 9 -- Chart
1960 8 23 18 21.6 136.3 980 0 9 -- Chart
1960 8 24 00 21.5 136.5 975 0 9 -- Chart
1960 8 24 06 21.7 136.7 975 0 9 -- Chart
1960 8 24 12 21.9 136.7 975 0 9 -- Chart
1960 8 24 18 22.0 136.7 975 0 9 -- Chart
1960 8 25 00 22.2 136.8 975 0 9 -- Chart
1960 8 25 06 22.2 137.2 975 0 9 -- Chart
1960 8 25 12 22.5 137.4 975 0 9 -- Chart
1960 8 25 18 23.0 137.2 975 0 9 -- Chart
1960 8 26 00 23.3 136.7 970 0 9 -- Chart
1960 8 26 06 23.8 136.3 970 0 9 -- Chart
1960 8 26 12 24.5 136.2 970 0 9 -- Chart
1960 8 26 18 25.3 136.1 970 0 9 -- Chart
1960 8 27 00 25.7 135.3 970 0 9 -- Chart
1960 8 27 06 26.5 134.7 970 0 9 -- Chart
1960 8 27 12 27.3 134.3 970 0 9 -- Chart
1960 8 27 18 27.9 134.1 970 0 9 -- Chart
1960 8 28 00 28.5 133.9 970 0 9 -- Chart
1960 8 28 06 29.3 133.2 970 0 9 -- Chart
1960 8 28 12 30.0 132.9 970 0 9 -- Chart
1960 8 28 18 31.1 132.8 970 0 9 -- Chart
1960 8 29 00 31.9 133.1 970 0 9 -- Chart
1960 8 29 06 33.8 133.5 970 0 9 -- Chart
1960 8 29 12 36.2 134.2 980 0 9 -- Chart
1960 8 29 18 39.0 135.1 980 0 9 -- Chart
1960 8 30 00 41.5 136.4 980 0 9 -- Chart
1960 8 30 06 43.5 137.8 980 0 9 -- Chart
1960 8 30 12 45.7 139.7 982 0 9 -- Chart
1960 8 30 18 47.6 141.5 986 0 6 -- Chart
1960 8 31 00 50.0 143.8 988 0 6 -- Chart
1960 8 31 06 51.8 144.0 988 0 6 -- Chart
1960 8 31 12 52.8 144.0 988 0 6 -- Chart
1960 8 31 18 54.0 144.0 988 0 6 -- Chart
1960 9 1 00 55.0 144.0 984 0 6 -- Chart
1960 9 1 06 56.0 144.0 986 0 6 -- Chart
1960 9 1 12 56.6 144.0 986 0 6 -- Chart
1960 9 1 18 57.3 144.5 988 0 6 -- Chart
1960 9 2 00 57.0 147.0 992 0 6 -- Chart
1960 9 2 06 56.0 151.0 996 0 6 -- Chart
1960 9 2 12 55.5 152.0 996 0 6 -- Chart
1960 9 2 18 55.0 153.0 998 0 6 -- Chart
1960 9 3 00 54.0 154.0 998 0 6 -- Chart
1960 9 3 06 52.5 155.0 1004 0 6 -- Chart
1960 9 3 12 51.0 156.0 1004 0 6 -- Chart
1960 9 3 18 49.0 159.0 1006 0 6 -- Chart
1960 9 4 00 48.5 162.5 1006 0 6 -- Chart
1960 9 4 06 48.0 165.0 1006 0 6 -- Chart
1960 9 4 12 47.5 167.0 1006 0 6 -- Chart
1960 9 4 18 47.5 169.0 1008 0 6 -- Chart
Japan Meteorological Agency Best Track Data | Correction Date : 1989-06-01
< Typhoon 196015 1960 Season Typhoon 196017 >

Help